TimeCDT,TemperatureF,Dew PointF,Humidity,Sea Level PressureIn,VisibilityMPH,Wind Direction,Wind SpeedMPH,Gust SpeedMPH,PrecipitationIn,Events,Conditions,WindDirDegrees,DateUTC
12:15 AM,32.0,29.1,89,30.10,10.0,Calm,Calm,-,N/A,,Clear,0,2013-10-27 05:15:00
12:35 AM,32.0,29.3,90,30.09,10.0,Calm,Calm,-,N/A,,Clear,0,2013-10-27 05:35:00
12:55 AM,31.8,29.1,90,30.08,10.0,Calm,Calm,-,N/A,,Clear,0,2013-10-27 05:55:00
1:15 AM,31.1,28.6,90,30.08,10.0,Calm,Calm,-,N/A,,Clear,0,2013-10-27 06:15:00
1:35 AM,30.2,28.2,92,30.07,10.0,Calm,Calm,-,N/A,,Clear,0,2013-10-27 06:35:00
1:55 AM,30.2,28.4,93,30.07,10.0,Calm,Calm,-,N/A,,Clear,0,2013-10-27 06:55:00
2:15 AM,30.0,28.4,94,30.06,10.0,Calm,Calm,-,N/A,,Clear,0,2013-10-27 07:15:00
2:35 AM,29.7,28.2,94,30.06,10.0,Calm,Calm,-,N/A,,Clear,0,2013-10-27 07:35:00
2:55 AM,30.0,28.6,94,30.06,10.0,Calm,Calm,-,N/A,,Clear,0,2013-10-27 07:55:00
3:15 AM,29.7,28.4,95,30.06,10.0,Calm,Calm,-,N/A,,Clear,0,2013-10-27 08:15:00
3:35 AM,30.2,28.9,95,30.05,10.0,Calm,Calm,-,N/A,,Clear,0,2013-10-27 08:35:00
3:55 AM,28.9,27.0,92,30.04,10.0,SSE,5.8,-,N/A,,Clear,150,2013-10-27 08:55:00
4:15 AM,28.4,26.8,94,30.04,10.0,SSE,4.6,-,N/A,,Clear,150,2013-10-27 09:15:00
4:35 AM,28.4,27.1,95,30.05,10.0,Calm,Calm,-,N/A,,Clear,0,2013-10-27 09:35:00
4:55 AM,27.9,26.4,94,30.05,10.0,ESE,3.5,-,N/A,,Clear,120,2013-10-27 09:55:00
5:15 AM,27.9,26.6,95,30.04,10.0,ESE,3.5,-,N/A,,Clear,120,2013-10-27 10:15:00
5:35 AM,27.5,26.2,95,30.05,10.0,SSE,3.5,-,N/A,,Clear,160,2013-10-27 10:35:00
5:55 AM,26.6,25.0,94,30.05,10.0,SE,3.5,-,N/A,,Clear,140,2013-10-27 10:55:00
6:15 AM,26.6,25.3,95,30.05,10.0,Calm,Calm,-,N/A,,Clear,0,2013-10-27 11:15:00
6:35 AM,26.2,25.0,95,30.06,10.0,Calm,Calm,-,N/A,,Clear,0,2013-10-27 11:35:00
6:55 AM,27.1,25.9,95,30.06,10.0,SSE,4.6,-,N/A,,Clear,150,2013-10-27 11:55:00
7:15 AM,27.0,25.7,95,30.06,10.0,SSE,4.6,-,N/A,,Clear,160,2013-10-27 12:15:00
7:35 AM,26.6,25.3,95,30.06,10.0,Calm,Calm,-,N/A,,Clear,0,2013-10-27 12:35:00
7:55 AM,27.5,26.4,96,30.07,10.0,SSE,4.6,-,N/A,,Clear,160,2013-10-27 12:55:00
8:15 AM,29.3,28.0,95,30.07,10.0,South,4.6,-,N/A,,Clear,170,2013-10-27 13:15:00
8:35 AM,31.5,29.8,94,30.07,10.0,SSE,3.5,-,N/A,,Clear,150,2013-10-27 13:35:00
8:55 AM,33.1,31.1,92,30.06,10.0,SSE,3.5,-,N/A,,Clear,160,2013-10-27 13:55:00
9:15 AM,35.4,32.0,87,30.06,10.0,SSE,4.6,-,N/A,,Clear,160,2013-10-27 14:15:00
9:35 AM,38.3,31.6,77,30.06,10.0,South,4.6,-,N/A,,Clear,190,2013-10-27 14:35:00
9:55 AM,39.6,31.6,73,30.07,10.0,SW,4.6,-,N/A,,Clear,230,2013-10-27 14:55:00
10:15 AM,42.1,32.0,67,30.06,10.0,SW,3.5,-,N/A,,Clear,220,2013-10-27 15:15:00
10:35 AM,43.3,32.2,65,30.06,10.0,SW,4.6,-,N/A,,Clear,230,2013-10-27 15:35:00
10:55 AM,45.7,32.0,59,30.05,10.0,SSW,5.8,-,N/A,,Clear,200,2013-10-27 15:55:00
11:15 AM,46.9,32.0,56,30.04,10.0,SW,6.9,-,N/A,,Clear,220,2013-10-27 16:15:00
11:35 AM,49.3,30.2,48,30.04,10.0,SW,11.5,-,N/A,,Clear,230,2013-10-27 16:35:00
11:55 AM,50.7,30.2,45,30.04,10.0,SW,10.4,-,N/A,,Clear,230,2013-10-27 16:55:00
12:15 PM,51.4,29.1,42,30.03,10.0,WSW,13.8,18.4,N/A,,Clear,240,2013-10-27 17:15:00
12:35 PM,52.2,29.8,42,30.02,10.0,SW,11.5,17.3,N/A,,Clear,230,2013-10-27 17:35:00
12:55 PM,52.3,29.3,41,30.01,10.0,SW,10.4,-,N/A,,Clear,230,2013-10-27 17:55:00
1:15 PM,53.6,28.9,39,29.99,10.0,SW,9.2,-,N/A,,Clear,220,2013-10-27 18:15:00
1:35 PM,54.0,28.2,37,29.98,10.0,SW,9.2,-,N/A,,Clear,220,2013-10-27 18:35:00
1:55 PM,53.8,28.0,37,29.97,10.0,SSW,8.1,-,N/A,,Clear,210,2013-10-27 18:55:00
2:15 PM,55.0,28.2,36,29.97,10.0,SW,8.1,-,N/A,,Clear,230,2013-10-27 19:15:00
2:35 PM,56.1,27.3,33,29.96,10.0,SSW,11.5,-,N/A,,Clear,200,2013-10-27 19:35:00
2:55 PM,55.8,27.0,33,29.96,10.0,SSW,8.1,16.1,N/A,,Clear,210,2013-10-27 19:55:00
3:15 PM,56.3,28.4,34,29.95,10.0,SSW,9.2,-,N/A,,Clear,200,2013-10-27 20:15:00
3:35 PM,56.3,28.0,34,29.96,10.0,SW,10.4,-,N/A,,Clear,230,2013-10-27 20:35:00
3:55 PM,56.5,27.7,33,29.96,10.0,SW,10.4,-,N/A,,Clear,220,2013-10-27 20:55:00
4:15 PM,56.5,28.4,34,29.95,10.0,SSW,9.2,-,N/A,,Clear,210,2013-10-27 21:15:00
4:35 PM,55.8,28.0,35,29.95,10.0,South,10.4,-,N/A,,Clear,190,2013-10-27 21:35:00
4:55 PM,55.4,28.9,36,29.94,10.0,SSW,9.2,-,N/A,,Clear,200,2013-10-27 21:55:00
5:15 PM,54.5,29.3,38,29.94,10.0,South,6.9,-,N/A,,Clear,190,2013-10-27 22:15:00
5:35 PM,52.9,30.0,42,29.93,10.0,South,5.8,-,N/A,,Clear,180,2013-10-27 22:35:00
5:55 PM,50.4,30.9,47,29.94,10.0,South,3.5,-,N/A,,Clear,190,2013-10-27 22:55:00
6:15 PM,49.6,31.3,49,29.94,10.0,SSW,4.6,-,N/A,,Clear,200,2013-10-27 23:15:00
6:35 PM,46.4,30.2,53,29.95,10.0,SSE,4.6,-,N/A,,Clear,160,2013-10-27 23:35:00
6:55 PM,42.3,30.2,62,29.94,10.0,SSE,5.8,-,N/A,,Clear,160,2013-10-27 23:55:00
7:15 PM,41.9,30.2,63,29.95,10.0,South,8.1,-,N/A,,Clear,170,2013-10-28 00:15:00
7:35 PM,44.2,30.2,58,29.96,10.0,South,4.6,-,N/A,,Clear,190,2013-10-28 00:35:00
7:55 PM,43.7,30.0,59,29.97,10.0,South,5.8,-,N/A,,Clear,170,2013-10-28 00:55:00
8:15 PM,42.1,29.8,62,29.97,10.0,SSE,4.6,-,N/A,,Clear,160,2013-10-28 01:15:00
8:35 PM,40.3,29.8,66,29.98,10.0,South,3.5,-,N/A,,Clear,170,2013-10-28 01:35:00
8:55 PM,40.1,29.3,65,29.99,10.0,Calm,Calm,-,N/A,,Clear,0,2013-10-28 01:55:00
9:15 PM,40.5,29.3,64,30.00,10.0,South,3.5,-,N/A,,Clear,190,2013-10-28 02:15:00
9:35 PM,37.8,28.8,70,30.01,10.0,Calm,Calm,-,N/A,,Clear,0,2013-10-28 02:35:00
9:55 PM,38.7,28.9,68,30.01,10.0,SSE,4.6,-,N/A,,Clear,160,2013-10-28 02:55:00
10:15 PM,39.9,29.3,66,30.01,10.0,SSE,3.5,-,N/A,,Clear,150,2013-10-28 03:15:00
10:35 PM,41.2,29.3,63,30.02,10.0,SSE,4.6,-,N/A,,Clear,160,2013-10-28 03:35:00
10:55 PM,39.6,29.3,67,30.03,10.0,South,4.6,-,N/A,,Clear,170,2013-10-28 03:55:00
11:15 PM,40.8,29.1,63,30.03,10.0,SSE,4.6,-,N/A,,Clear,160,2013-10-28 04:15:00
11:35 PM,38.7,29.7,70,30.03,10.0,SSE,4.6,-,N/A,,Clear,150,2013-10-28 04:35:00
11:55 PM,37.4,29.1,72,30.03,10.0,Calm,Calm,-,N/A,,Clear,0,2013-10-28 04:55:00